Terminal Aerodrome Forecast
Issued by NWS

Home | Current Version | Previous Version | Text Only | Print | Product List | Glossary On
Versions: 1 2 3 4 5 6 7 8 9 10 11 12 13 14 15 16 17 18 19 20 21
549
FTUS43 KGRR 041408 AAB
TAFMKG
TAF AMD
KMKG 041408Z 0414/0512 35014G22KT P6SM -RA OVC008
     FM042100 34016G22KT P6SM VCSH OVC025=

USA.gov is the U.S. government's official web portal to all federal, state and local government web resources and services.